sensor_id;sensor_type;location;lat;lon;timestamp;P1;durP1;ratioP1;P2;durP2;ratioP2
80677;SDS011;70042;52.494;5.502;2024-02-26T00:02:15;2.60;;;1.48;;
80677;SDS011;70042;52.494;5.502;2024-02-26T00:04:41;1.80;;;1.15;;
80677;SDS011;70042;52.494;5.502;2024-02-26T00:07:06;3.28;;;1.77;;
80677;SDS011;70042;52.494;5.502;2024-02-26T00:09:32;6.25;;;1.45;;
80677;SDS011;70042;52.494;5.502;2024-02-26T00:12:04;1.67;;;1.25;;
80677;SDS011;70042;52.494;5.502;2024-02-26T00:14:30;3.88;;;1.60;;
80677;SDS011;70042;52.494;5.502;2024-02-26T00:19:21;3.83;;;1.33;;
80677;SDS011;70042;52.494;5.502;2024-02-26T00:21:47;2.00;;;0.95;;
80677;SDS011;70042;52.494;5.502;2024-02-26T00:24:12;2.70;;;1.10;;
80677;SDS011;70042;52.494;5.502;2024-02-26T00:26:38;2.72;;;1.85;;
80677;SDS011;70042;52.494;5.502;2024-02-26T00:29:03;1.90;;;1.20;;
80677;SDS011;70042;52.494;5.502;2024-02-26T00:31:29;1.50;;;1.13;;
80677;SDS011;70042;52.494;5.502;2024-02-26T00:33:54;2.75;;;1.30;;
80677;SDS011;70042;52.494;5.502;2024-02-26T00:36:20;3.40;;;1.30;;
80677;SDS011;70042;52.494;5.502;2024-02-26T00:38:45;2.22;;;1.33;;
80677;SDS011;70042;52.494;5.502;2024-02-26T00:41:15;2.00;;;1.20;;
80677;SDS011;70042;52.494;5.502;2024-02-26T00:43:45;2.55;;;1.30;;
80677;SDS011;70042;52.494;5.502;2024-02-26T00:46:10;2.30;;;1.40;;
80677;SDS011;70042;52.494;5.502;2024-02-26T00:48:36;1.98;;;1.05;;
80677;SDS011;70042;52.494;5.502;2024-02-26T00:51:02;2.83;;;1.30;;
80677;SDS011;70042;52.494;5.502;2024-02-26T00:53:30;2.38;;;1.25;;
80677;SDS011;70042;52.494;5.502;2024-02-26T00:55:55;2.80;;;1.02;;
80677;SDS011;70042;52.494;5.502;2024-02-26T00:58:21;2.30;;;1.00;;
80677;SDS011;70042;52.494;5.502;2024-02-26T01:00:46;2.13;;;1.20;;
80677;SDS011;70042;52.494;5.502;2024-02-26T01:03:12;2.63;;;1.20;;
80677;SDS011;70042;52.494;5.502;2024-02-26T01:05:37;2.05;;;1.00;;
80677;SDS011;70042;52.494;5.502;2024-02-26T01:08:03;1.92;;;1.23;;
80677;SDS011;70042;52.494;5.502;2024-02-26T01:12:54;2.47;;;1.43;;
80677;SDS011;70042;52.494;5.502;2024-02-26T01:15:20;2.63;;;1.27;;
80677;SDS011;70042;52.494;5.502;2024-02-26T01:17:48;1.40;;;1.10;;
80677;SDS011;70042;52.494;5.502;2024-02-26T01:20:15;1.40;;;1.30;;
80677;SDS011;70042;52.494;5.502;2024-02-26T01:22:40;1.60;;;1.10;;
80677;SDS011;70042;52.494;5.502;2024-02-26T01:25:06;2.35;;;1.25;;
80677;SDS011;70042;52.494;5.502;2024-02-26T01:27:32;1.55;;;1.10;;
80677;SDS011;70042;52.494;5.502;2024-02-26T01:29:58;1.70;;;0.82;;
80677;SDS011;70042;52.494;5.502;2024-02-26T01:32:23;2.97;;;1.50;;
80677;SDS011;70042;52.494;5.502;2024-02-26T01:34:49;2.17;;;1.23;;
80677;SDS011;70042;52.494;5.502;2024-02-26T01:37:14;1.70;;;1.25;;
80677;SDS011;70042;52.494;5.502;2024-02-26T01:39:40;1.80;;;1.27;;
80677;SDS011;70042;52.494;5.502;2024-02-26T01:42:06;3.13;;;1.15;;
80677;SDS011;70042;52.494;5.502;2024-02-26T01:44:32;3.10;;;1.30;;
80677;SDS011;70042;52.494;5.502;2024-02-26T01:46:58;1.35;;;0.98;;
80677;SDS011;70042;52.494;5.502;2024-02-26T01:51:49;1.70;;;1.00;;
80677;SDS011;70042;52.494;5.502;2024-02-26T01:54:15;2.45;;;1.10;;
80677;SDS011;70042;52.494;5.502;2024-02-26T01:56:40;1.70;;;1.25;;
80677;SDS011;70042;52.494;5.502;2024-02-26T01:59:06;2.50;;;1.30;;
80677;SDS011;70042;52.494;5.502;2024-02-26T02:01:33;2.25;;;1.10;;
80677;SDS011;70042;52.494;5.502;2024-02-26T02:06:25;2.10;;;1.20;;
80677;SDS011;70042;52.494;5.502;2024-02-26T02:08:54;1.70;;;1.27;;
80677;SDS011;70042;52.494;5.502;2024-02-26T02:11:19;1.85;;;1.20;;
80677;SDS011;70042;52.494;5.502;2024-02-26T02:13:45;2.13;;;1.20;;
80677;SDS011;70042;52.494;5.502;2024-02-26T02:16:11;2.90;;;1.25;;
80677;SDS011;70042;52.494;5.502;2024-02-26T02:18:37;1.30;;;0.90;;
80677;SDS011;70042;52.494;5.502;2024-02-26T02:21:02;2.45;;;1.20;;
80677;SDS011;70042;52.494;5.502;2024-02-26T02:23:28;2.25;;;1.20;;
80677;SDS011;70042;52.494;5.502;2024-02-26T02:25:54;1.40;;;1.05;;
80677;SDS011;70042;52.494;5.502;2024-02-26T02:28:21;3.38;;;1.33;;
80677;SDS011;70042;52.494;5.502;2024-02-26T02:30:47;1.45;;;1.13;;
80677;SDS011;70042;52.494;5.502;2024-02-26T02:33:13;1.40;;;1.00;;
80677;SDS011;70042;52.494;5.502;2024-02-26T02:35:40;2.88;;;1.50;;
80677;SDS011;70042;52.494;5.502;2024-02-26T02:38:06;1.42;;;0.88;;
80677;SDS011;70042;52.494;5.502;2024-02-26T02:40:31;1.52;;;1.08;;
80677;SDS011;70042;52.494;5.502;2024-02-26T02:42:57;2.00;;;1.42;;
80677;SDS011;70042;52.494;5.502;2024-02-26T02:45:22;2.25;;;1.13;;
80677;SDS011;70042;52.494;5.502;2024-02-26T02:47:48;1.88;;;1.00;;
80677;SDS011;70042;52.494;5.502;2024-02-26T02:50:13;2.00;;;1.27;;
80677;SDS011;70042;52.494;5.502;2024-02-26T02:52:39;1.70;;;1.20;;
80677;SDS011;70042;52.494;5.502;2024-02-26T02:55:04;2.00;;;1.35;;
80677;SDS011;70042;52.494;5.502;2024-02-26T02:57:30;1.40;;;1.00;;
80677;SDS011;70042;52.494;5.502;2024-02-26T02:59:58;2.28;;;1.20;;
80677;SDS011;70042;52.494;5.502;2024-02-26T03:02:23;1.63;;;1.23;;
80677;SDS011;70042;52.494;5.502;2024-02-26T03:04:51;1.67;;;1.00;;
80677;SDS011;70042;52.494;5.502;2024-02-26T03:07:17;1.95;;;1.40;;
80677;SDS011;70042;52.494;5.502;2024-02-26T03:09:42;1.67;;;1.20;;
80677;SDS011;70042;52.494;5.502;2024-02-26T03:12:08;1.77;;;1.20;;
80677;SDS011;70042;52.494;5.502;2024-02-26T03:14:33;1.60;;;1.10;;
80677;SDS011;70042;52.494;5.502;2024-02-26T03:16:59;1.70;;;1.20;;
80677;SDS011;70042;52.494;5.502;2024-02-26T03:19:24;1.75;;;1.08;;
80677;SDS011;70042;52.494;5.502;2024-02-26T03:21:50;1.80;;;0.88;;
80677;SDS011;70042;52.494;5.502;2024-02-26T03:24:15;1.88;;;1.30;;
80677;SDS011;70042;52.494;5.502;2024-02-26T03:26:40;2.00;;;1.20;;
80677;SDS011;70042;52.494;5.502;2024-02-26T03:29:06;1.85;;;1.10;;
80677;SDS011;70042;52.494;5.502;2024-02-26T03:31:31;1.63;;;1.20;;
80677;SDS011;70042;52.494;5.502;2024-02-26T03:33:57;1.48;;;1.10;;
80677;SDS011;70042;52.494;5.502;2024-02-26T03:36:22;1.50;;;1.30;;
80677;SDS011;70042;52.494;5.502;2024-02-26T03:38:48;1.70;;;1.35;;
80677;SDS011;70042;52.494;5.502;2024-02-26T03:41:13;2.53;;;1.50;;
80677;SDS011;70042;52.494;5.502;2024-02-26T03:43:39;1.83;;;1.30;;
80677;SDS011;70042;52.494;5.502;2024-02-26T03:46:08;1.83;;;1.23;;
80677;SDS011;70042;52.494;5.502;2024-02-26T03:48:34;2.40;;;1.45;;
80677;SDS011;70042;52.494;5.502;2024-02-26T03:51:00;1.95;;;1.42;;
80677;SDS011;70042;52.494;5.502;2024-02-26T03:53:26;1.65;;;1.50;;
80677;SDS011;70042;52.494;5.502;2024-02-26T03:55:51;1.73;;;1.50;;
80677;SDS011;70042;52.494;5.502;2024-02-26T04:00:43;1.80;;;1.30;;
80677;SDS011;70042;52.494;5.502;2024-02-26T04:03:09;1.45;;;1.20;;
80677;SDS011;70042;52.494;5.502;2024-02-26T04:05:34;1.98;;;1.45;;
80677;SDS011;70042;52.494;5.502;2024-02-26T04:07:59;2.45;;;1.30;;
80677;SDS011;70042;52.494;5.502;2024-02-26T04:10:25;2.92;;;1.55;;
80677;SDS011;70042;52.494;5.502;2024-02-26T04:12:50;2.33;;;1.58;;
80677;SDS011;70042;52.494;5.502;2024-02-26T04:15:16;2.72;;;1.48;;
80677;SDS011;70042;52.494;5.502;2024-02-26T04:17:41;2.00;;;1.40;;
80677;SDS011;70042;52.494;5.502;2024-02-26T04:20:07;1.60;;;1.30;;
80677;SDS011;70042;52.494;5.502;2024-02-26T04:22:33;2.03;;;1.13;;
80677;SDS011;70042;52.494;5.502;2024-02-26T04:24:59;1.95;;;1.30;;
80677;SDS011;70042;52.494;5.502;2024-02-26T04:27:24;1.88;;;1.38;;
80677;SDS011;70042;52.494;5.502;2024-02-26T04:29:50;2.25;;;1.90;;
80677;SDS011;70042;52.494;5.502;2024-02-26T04:32:15;2.08;;;1.65;;
80677;SDS011;70042;52.494;5.502;2024-02-26T04:34:41;2.15;;;1.50;;
80677;SDS011;70042;52.494;5.502;2024-02-26T04:37:07;2.03;;;1.25;;
80677;SDS011;70042;52.494;5.502;2024-02-26T04:39:32;2.25;;;1.27;;
80677;SDS011;70042;52.494;5.502;2024-02-26T04:41:57;2.13;;;1.83;;
80677;SDS011;70042;52.494;5.502;2024-02-26T04:44:23;2.17;;;1.30;;
80677;SDS011;70042;52.494;5.502;2024-02-26T04:46:48;2.63;;;1.67;;
80677;SDS011;70042;52.494;5.502;2024-02-26T04:49:14;2.05;;;1.65;;
80677;SDS011;70042;52.494;5.502;2024-02-26T04:51:39;2.33;;;1.70;;
80677;SDS011;70042;52.494;5.502;2024-02-26T04:54:04;2.40;;;1.60;;
80677;SDS011;70042;52.494;5.502;2024-02-26T04:56:30;2.20;;;1.40;;
80677;SDS011;70042;52.494;5.502;2024-02-26T04:58:55;2.55;;;1.50;;
80677;SDS011;70042;52.494;5.502;2024-02-26T05:01:21;2.20;;;1.58;;
80677;SDS011;70042;52.494;5.502;2024-02-26T05:03:46;2.42;;;1.80;;
80677;SDS011;70042;52.494;5.502;2024-02-26T05:06:12;2.40;;;1.80;;
80677;SDS011;70042;52.494;5.502;2024-02-26T05:08:38;2.40;;;1.77;;
80677;SDS011;70042;52.494;5.502;2024-02-26T05:11:04;2.42;;;1.52;;
80677;SDS011;70042;52.494;5.502;2024-02-26T05:13:29;2.17;;;1.60;;
80677;SDS011;70042;52.494;5.502;2024-02-26T05:15:55;2.53;;;1.90;;
80677;SDS011;70042;52.494;5.502;2024-02-26T05:18:21;2.35;;;1.58;;
80677;SDS011;70042;52.494;5.502;2024-02-26T05:20:47;1.83;;;1.40;;
80677;SDS011;70042;52.494;5.502;2024-02-26T05:23:12;1.77;;;1.45;;
80677;SDS011;70042;52.494;5.502;2024-02-26T05:25:38;2.42;;;1.88;;
80677;SDS011;70042;52.494;5.502;2024-02-26T05:28:03;2.85;;;2.05;;
80677;SDS011;70042;52.494;5.502;2024-02-26T05:30:29;1.90;;;1.48;;
80677;SDS011;70042;52.494;5.502;2024-02-26T05:32:54;2.67;;;1.90;;
80677;SDS011;70042;52.494;5.502;2024-02-26T05:35:20;2.00;;;1.60;;
80677;SDS011;70042;52.494;5.502;2024-02-26T05:37:45;2.17;;;1.60;;
80677;SDS011;70042;52.494;5.502;2024-02-26T05:40:11;1.90;;;1.67;;
80677;SDS011;70042;52.494;5.502;2024-02-26T05:42:37;2.60;;;1.90;;
80677;SDS011;70042;52.494;5.502;2024-02-26T05:45:02;2.10;;;1.70;;
80677;SDS011;70042;52.494;5.502;2024-02-26T05:47:32;2.38;;;2.00;;
80677;SDS011;70042;52.494;5.502;2024-02-26T05:49:58;2.03;;;1.50;;
80677;SDS011;70042;52.494;5.502;2024-02-26T05:52:25;2.17;;;1.70;;
80677;SDS011;70042;52.494;5.502;2024-02-26T05:54:51;2.03;;;1.48;;
80677;SDS011;70042;52.494;5.502;2024-02-26T05:57:17;1.98;;;1.60;;
80677;SDS011;70042;52.494;5.502;2024-02-26T05:59:43;2.22;;;1.50;;
80677;SDS011;70042;52.494;5.502;2024-02-26T06:02:09;2.90;;;2.00;;
80677;SDS011;70042;52.494;5.502;2024-02-26T06:04:34;2.70;;;1.80;;
80677;SDS011;70042;52.494;5.502;2024-02-26T06:06:59;2.22;;;1.60;;
80677;SDS011;70042;52.494;5.502;2024-02-26T06:09:25;2.13;;;1.60;;
80677;SDS011;70042;52.494;5.502;2024-02-26T06:11:50;1.75;;;1.45;;
80677;SDS011;70042;52.494;5.502;2024-02-26T06:14:16;2.53;;;1.90;;
80677;SDS011;70042;52.494;5.502;2024-02-26T06:16:43;2.47;;;1.45;;
80677;SDS011;70042;52.494;5.502;2024-02-26T06:19:09;1.80;;;1.52;;
80677;SDS011;70042;52.494;5.502;2024-02-26T06:21:35;2.75;;;2.00;;
80677;SDS011;70042;52.494;5.502;2024-02-26T06:24:01;1.92;;;1.45;;
80677;SDS011;70042;52.494;5.502;2024-02-26T06:26:26;1.65;;;1.23;;
80677;SDS011;70042;52.494;5.502;2024-02-26T06:28:54;2.20;;;1.60;;
80677;SDS011;70042;52.494;5.502;2024-02-26T06:31:19;3.00;;;1.50;;
80677;SDS011;70042;52.494;5.502;2024-02-26T06:33:47;1.77;;;1.60;;
80677;SDS011;70042;52.494;5.502;2024-02-26T06:36:13;2.13;;;1.52;;
80677;SDS011;70042;52.494;5.502;2024-02-26T06:38:38;2.25;;;1.80;;
80677;SDS011;70042;52.494;5.502;2024-02-26T06:41:05;2.00;;;1.30;;
80677;SDS011;70042;52.494;5.502;2024-02-26T06:43:30;1.98;;;1.48;;
80677;SDS011;70042;52.494;5.502;2024-02-26T06:45:56;1.88;;;1.40;;
80677;SDS011;70042;52.494;5.502;2024-02-26T06:48:23;1.60;;;1.40;;
80677;SDS011;70042;52.494;5.502;2024-02-26T06:50:49;1.85;;;1.35;;
80677;SDS011;70042;52.494;5.502;2024-02-26T06:53:15;2.13;;;1.40;;
80677;SDS011;70042;52.494;5.502;2024-02-26T06:55:41;2.42;;;1.48;;
80677;SDS011;70042;52.494;5.502;2024-02-26T06:58:07;2.63;;;1.90;;
80677;SDS011;70042;52.494;5.502;2024-02-26T07:00:33;1.98;;;1.50;;
80677;SDS011;70042;52.494;5.502;2024-02-26T07:02:58;2.13;;;1.60;;
80677;SDS011;70042;52.494;5.502;2024-02-26T07:05:23;2.35;;;1.45;;
80677;SDS011;70042;52.494;5.502;2024-02-26T07:07:49;2.75;;;1.20;;
80677;SDS011;70042;52.494;5.502;2024-02-26T07:10:14;2.60;;;1.45;;
80677;SDS011;70042;52.494;5.502;2024-02-26T07:12:40;1.35;;;1.13;;
80677;SDS011;70042;52.494;5.502;2024-02-26T07:15:05;1.90;;;1.25;;
80677;SDS011;70042;52.494;5.502;2024-02-26T07:17:33;1.60;;;1.25;;
80677;SDS011;70042;52.494;5.502;2024-02-26T07:22:24;1.75;;;1.40;;
80677;SDS011;70042;52.494;5.502;2024-02-26T07:24:50;2.42;;;1.05;;
80677;SDS011;70042;52.494;5.502;2024-02-26T07:27:16;1.98;;;1.25;;
80677;SDS011;70042;52.494;5.502;2024-02-26T07:29:43;1.67;;;1.30;;
80677;SDS011;70042;52.494;5.502;2024-02-26T07:32:08;1.50;;;1.30;;
80677;SDS011;70042;52.494;5.502;2024-02-26T07:34:35;1.75;;;1.30;;
80677;SDS011;70042;52.494;5.502;2024-02-26T07:37:02;3.03;;;1.42;;
80677;SDS011;70042;52.494;5.502;2024-02-26T07:39:28;1.33;;;1.13;;
80677;SDS011;70042;52.494;5.502;2024-02-26T07:41:53;4.22;;;1.60;;
80677;SDS011;70042;52.494;5.502;2024-02-26T07:44:19;1.70;;;1.20;;
80677;SDS011;70042;52.494;5.502;2024-02-26T07:46:44;2.17;;;1.02;;
80677;SDS011;70042;52.494;5.502;2024-02-26T07:49:10;1.80;;;1.10;;
80677;SDS011;70042;52.494;5.502;2024-02-26T07:51:35;1.30;;;0.98;;
80677;SDS011;70042;52.494;5.502;2024-02-26T07:54:00;1.65;;;1.00;;
80677;SDS011;70042;52.494;5.502;2024-02-26T07:56:26;1.20;;;0.90;;
80677;SDS011;70042;52.494;5.502;2024-02-26T07:58:52;1.38;;;0.93;;
80677;SDS011;70042;52.494;5.502;2024-02-26T08:01:17;1.45;;;0.88;;
80677;SDS011;70042;52.494;5.502;2024-02-26T08:03:43;1.50;;;0.90;;
80677;SDS011;70042;52.494;5.502;2024-02-26T08:06:08;1.52;;;0.82;;
80677;SDS011;70042;52.494;5.502;2024-02-26T08:08:34;1.20;;;0.90;;
80677;SDS011;70042;52.494;5.502;2024-02-26T08:10:59;1.00;;;0.80;;
80677;SDS011;70042;52.494;5.502;2024-02-26T08:13:25;0.80;;;0.60;;
80677;SDS011;70042;52.494;5.502;2024-02-26T08:15:51;1.77;;;0.70;;
80677;SDS011;70042;52.494;5.502;2024-02-26T08:18:17;1.10;;;0.80;;
80677;SDS011;70042;52.494;5.502;2024-02-26T08:20:44;2.05;;;0.77;;
80677;SDS011;70042;52.494;5.502;2024-02-26T08:23:09;1.20;;;0.80;;
80677;SDS011;70042;52.494;5.502;2024-02-26T08:25:35;0.93;;;0.70;;
80677;SDS011;70042;52.494;5.502;2024-02-26T08:28:00;1.23;;;0.80;;
80677;SDS011;70042;52.494;5.502;2024-02-26T08:30:26;2.10;;;0.80;;
80677;SDS011;70042;52.494;5.502;2024-02-26T08:32:51;1.02;;;0.75;;
80677;SDS011;70042;52.494;5.502;2024-02-26T08:35:17;1.10;;;0.82;;
80677;SDS011;70042;52.494;5.502;2024-02-26T08:37:46;1.05;;;0.93;;
80677;SDS011;70042;52.494;5.502;2024-02-26T08:40:12;1.08;;;0.80;;
80677;SDS011;70042;52.494;5.502;2024-02-26T08:42:38;0.88;;;0.70;;
80677;SDS011;70042;52.494;5.502;2024-02-26T08:45:03;1.33;;;0.70;;
80677;SDS011;70042;52.494;5.502;2024-02-26T08:47:29;1.13;;;0.73;;
80677;SDS011;70042;52.494;5.502;2024-02-26T08:49:55;1.45;;;0.90;;
80677;SDS011;70042;52.494;5.502;2024-02-26T08:52:20;0.98;;;0.60;;
80677;SDS011;70042;52.494;5.502;2024-02-26T08:54:46;0.98;;;0.70;;
80677;SDS011;70042;52.494;5.502;2024-02-26T08:57:12;0.90;;;0.60;;
80677;SDS011;70042;52.494;5.502;2024-02-26T08:59:37;1.40;;;1.00;;
80677;SDS011;70042;52.494;5.502;2024-02-26T09:02:03;0.63;;;0.50;;
80677;SDS011;70042;52.494;5.502;2024-02-26T09:04:28;1.10;;;0.70;;
80677;SDS011;70042;52.494;5.502;2024-02-26T09:06:54;0.80;;;0.50;;
80677;SDS011;70042;52.494;5.502;2024-02-26T09:09:19;0.93;;;0.60;;
80677;SDS011;70042;52.494;5.502;2024-02-26T09:11:47;0.80;;;0.60;;
80677;SDS011;70042;52.494;5.502;2024-02-26T09:14:13;1.30;;;0.63;;
80677;SDS011;70042;52.494;5.502;2024-02-26T09:16:39;0.80;;;0.60;;
80677;SDS011;70042;52.494;5.502;2024-02-26T09:19:04;0.95;;;0.60;;
80677;SDS011;70042;52.494;5.502;2024-02-26T09:21:29;0.90;;;0.60;;
80677;SDS011;70042;52.494;5.502;2024-02-26T09:23:55;1.20;;;0.65;;
80677;SDS011;70042;52.494;5.502;2024-02-26T09:26:21;1.13;;;0.50;;
80677;SDS011;70042;52.494;5.502;2024-02-26T09:28:46;1.20;;;0.70;;
80677;SDS011;70042;52.494;5.502;2024-02-26T09:31:12;0.98;;;0.68;;
80677;SDS011;70042;52.494;5.502;2024-02-26T09:33:37;1.02;;;0.63;;
80677;SDS011;70042;52.494;5.502;2024-02-26T09:36:03;1.48;;;0.68;;
80677;SDS011;70042;52.494;5.502;2024-02-26T09:38:31;1.17;;;1.00;;
80677;SDS011;70042;52.494;5.502;2024-02-26T09:41:01;1.90;;;0.50;;
80677;SDS011;70042;52.494;5.502;2024-02-26T09:43:27;1.00;;;0.80;;
80677;SDS011;70042;52.494;5.502;2024-02-26T09:45:59;1.52;;;0.70;;
80677;SDS011;70042;52.494;5.502;2024-02-26T09:48:25;1.00;;;0.68;;
80677;SDS011;70042;52.494;5.502;2024-02-26T09:50:51;0.90;;;0.50;;
80677;SDS011;70042;52.494;5.502;2024-02-26T09:55:43;0.90;;;0.47;;
80677;SDS011;70042;52.494;5.502;2024-02-26T09:58:09;0.60;;;0.45;;
80677;SDS011;70042;52.494;5.502;2024-02-26T10:03:06;1.20;;;0.60;;
80677;SDS011;70042;52.494;5.502;2024-02-26T10:05:39;1.17;;;0.50;;
80677;SDS011;70042;52.494;5.502;2024-02-26T10:10:33;2.15;;;0.77;;
80677;SDS011;70042;52.494;5.502;2024-02-26T10:12:59;1.73;;;0.82;;
80677;SDS011;70042;52.494;5.502;2024-02-26T10:15:26;1.48;;;0.77;;
80677;SDS011;70042;52.494;5.502;2024-02-26T10:17:52;2.22;;;0.80;;
80677;SDS011;70042;52.494;5.502;2024-02-26T10:20:18;2.75;;;1.00;;
80677;SDS011;70042;52.494;5.502;2024-02-26T10:22:46;1.80;;;0.70;;
80677;SDS011;70042;52.494;5.502;2024-02-26T10:25:12;1.45;;;0.75;;
80677;SDS011;70042;52.494;5.502;2024-02-26T10:27:38;2.60;;;0.80;;
80677;SDS011;70042;52.494;5.502;2024-02-26T10:30:16;3.15;;;0.80;;
80677;SDS011;70042;52.494;5.502;2024-02-26T10:32:43;3.00;;;1.00;;
80677;SDS011;70042;52.494;5.502;2024-02-26T10:37:34;2.35;;;0.70;;
80677;SDS011;70042;52.494;5.502;2024-02-26T10:40:00;2.30;;;1.08;;
80677;SDS011;70042;52.494;5.502;2024-02-26T10:42:26;2.42;;;0.68;;
80677;SDS011;70042;52.494;5.502;2024-02-26T10:44:52;2.90;;;1.10;;
80677;SDS011;70042;52.494;5.502;2024-02-26T10:47:17;2.50;;;0.77;;
80677;SDS011;70042;52.494;5.502;2024-02-26T10:49:46;1.88;;;0.80;;
80677;SDS011;70042;52.494;5.502;2024-02-26T10:52:13;2.22;;;1.15;;
80677;SDS011;70042;52.494;5.502;2024-02-26T10:54:40;3.38;;;0.80;;
80677;SDS011;70042;52.494;5.502;2024-02-26T10:57:08;4.53;;;1.00;;
80677;SDS011;70042;52.494;5.502;2024-02-26T10:59:35;2.03;;;0.77;;
80677;SDS011;70042;52.494;5.502;2024-02-26T11:02:01;3.88;;;0.75;;
80677;SDS011;70042;52.494;5.502;2024-02-26T11:04:28;1.95;;;0.90;;
80677;SDS011;70042;52.494;5.502;2024-02-26T11:06:56;2.97;;;1.52;;
80677;SDS011;70042;52.494;5.502;2024-02-26T11:09:22;1.33;;;0.60;;
80677;SDS011;70042;52.494;5.502;2024-02-26T11:11:49;2.00;;;0.90;;
80677;SDS011;70042;52.494;5.502;2024-02-26T11:14:19;1.25;;;0.70;;
80677;SDS011;70042;52.494;5.502;2024-02-26T11:16:47;2.15;;;1.00;;
80677;SDS011;70042;52.494;5.502;2024-02-26T11:19:14;2.25;;;0.82;;
80677;SDS011;70042;52.494;5.502;2024-02-26T11:21:41;3.33;;;1.02;;
80677;SDS011;70042;52.494;5.502;2024-02-26T11:24:14;2.47;;;0.90;;
80677;SDS011;70042;52.494;5.502;2024-02-26T11:26:50;1.30;;;0.50;;
80677;SDS011;70042;52.494;5.502;2024-02-26T11:29:24;1.52;;;0.60;;
80677;SDS011;70042;52.494;5.502;2024-02-26T11:31:52;2.72;;;0.70;;
80677;SDS011;70042;52.494;5.502;2024-02-26T11:34:18;2.42;;;0.68;;
80677;SDS011;70042;52.494;5.502;2024-02-26T11:36:43;1.13;;;0.57;;
80677;SDS011;70042;52.494;5.502;2024-02-26T11:39:10;1.30;;;0.80;;
80677;SDS011;70042;52.494;5.502;2024-02-26T11:41:38;2.60;;;1.17;;
80677;SDS011;70042;52.494;5.502;2024-02-26T11:44:04;2.10;;;0.70;;
80677;SDS011;70042;52.494;5.502;2024-02-26T11:46:41;1.00;;;0.60;;
80677;SDS011;70042;52.494;5.502;2024-02-26T11:51:56;1.33;;;0.88;;
80677;SDS011;70042;52.494;5.502;2024-02-26T12:02:47;1.85;;;0.60;;
80677;SDS011;70042;52.494;5.502;2024-02-26T12:10:32;3.20;;;0.90;;
80677;SDS011;70042;52.494;5.502;2024-02-26T12:13:13;1.55;;;0.50;;
80677;SDS011;70042;52.494;5.502;2024-02-26T12:15:43;1.92;;;0.65;;
80677;SDS011;70042;52.494;5.502;2024-02-26T12:18:15;1.75;;;0.70;;
80677;SDS011;70042;52.494;5.502;2024-02-26T12:20:42;1.02;;;0.60;;
80677;SDS011;70042;52.494;5.502;2024-02-26T12:23:09;2.58;;;0.50;;
80677;SDS011;70042;52.494;5.502;2024-02-26T12:25:40;1.80;;;0.85;;
80677;SDS011;70042;52.494;5.502;2024-02-26T12:28:05;2.30;;;0.50;;
80677;SDS011;70042;52.494;5.502;2024-02-26T12:30:32;1.90;;;0.70;;
80677;SDS011;70042;52.494;5.502;2024-02-26T12:32:58;1.42;;;0.60;;
80677;SDS011;70042;52.494;5.502;2024-02-26T12:35:26;1.20;;;0.80;;
80677;SDS011;70042;52.494;5.502;2024-02-26T12:37:53;1.00;;;0.60;;
80677;SDS011;70042;52.494;5.502;2024-02-26T12:40:19;1.50;;;0.80;;
80677;SDS011;70042;52.494;5.502;2024-02-26T12:42:45;0.90;;;0.50;;
80677;SDS011;70042;52.494;5.502;2024-02-26T12:45:12;2.08;;;0.55;;
80677;SDS011;70042;52.494;5.502;2024-02-26T12:50:08;2.55;;;0.70;;
80677;SDS011;70042;52.494;5.502;2024-02-26T12:52:35;1.52;;;0.60;;
80677;SDS011;70042;52.494;5.502;2024-02-26T12:55:02;2.72;;;0.73;;
80677;SDS011;70042;52.494;5.502;2024-02-26T12:57:30;0.95;;;0.45;;
80677;SDS011;70042;52.494;5.502;2024-02-26T12:59:58;0.98;;;0.60;;
80677;SDS011;70042;52.494;5.502;2024-02-26T13:02:25;0.90;;;0.50;;
80677;SDS011;70042;52.494;5.502;2024-02-26T13:04:52;1.52;;;0.50;;
80677;SDS011;70042;52.494;5.502;2024-02-26T13:07:20;1.38;;;0.43;;
80677;SDS011;70042;52.494;5.502;2024-02-26T13:09:46;1.63;;;0.60;;
80677;SDS011;70042;52.494;5.502;2024-02-26T13:12:12;1.35;;;0.40;;
80677;SDS011;70042;52.494;5.502;2024-02-26T13:14:39;1.48;;;0.50;;
80677;SDS011;70042;52.494;5.502;2024-02-26T13:17:04;1.52;;;0.60;;
80677;SDS011;70042;52.494;5.502;2024-02-26T13:19:30;0.85;;;0.52;;
80677;SDS011;70042;52.494;5.502;2024-02-26T13:21:55;2.13;;;0.50;;
80677;SDS011;70042;52.494;5.502;2024-02-26T13:24:21;1.98;;;0.60;;
80677;SDS011;70042;52.494;5.502;2024-02-26T13:26:53;1.90;;;0.52;;
80677;SDS011;70042;52.494;5.502;2024-02-26T13:29:20;1.98;;;0.52;;
80677;SDS011;70042;52.494;5.502;2024-02-26T13:31:45;1.00;;;0.60;;
80677;SDS011;70042;52.494;5.502;2024-02-26T13:34:13;1.50;;;0.65;;
80677;SDS011;70042;52.494;5.502;2024-02-26T13:36:51;1.33;;;0.60;;
80677;SDS011;70042;52.494;5.502;2024-02-26T13:39:24;2.17;;;0.70;;
80677;SDS011;70042;52.494;5.502;2024-02-26T13:41:50;2.28;;;0.60;;
80677;SDS011;70042;52.494;5.502;2024-02-26T13:44:17;2.00;;;0.43;;
80677;SDS011;70042;52.494;5.502;2024-02-26T13:46:42;1.35;;;0.40;;
80677;SDS011;70042;52.494;5.502;2024-02-26T13:49:08;0.82;;;0.50;;
80677;SDS011;70042;52.494;5.502;2024-02-26T13:51:34;2.60;;;0.60;;
80677;SDS011;70042;52.494;5.502;2024-02-26T13:54:03;0.88;;;0.52;;
80677;SDS011;70042;52.494;5.502;2024-02-26T13:56:30;0.60;;;0.38;;
80677;SDS011;70042;52.494;5.502;2024-02-26T13:58:56;1.38;;;0.60;;
80677;SDS011;70042;52.494;5.502;2024-02-26T14:01:23;2.53;;;0.63;;
80677;SDS011;70042;52.494;5.502;2024-02-26T14:03:51;0.80;;;0.40;;
80677;SDS011;70042;52.494;5.502;2024-02-26T14:06:20;1.65;;;0.60;;
80677;SDS011;70042;52.494;5.502;2024-02-26T14:08:45;2.47;;;1.23;;
80677;SDS011;70042;52.494;5.502;2024-02-26T14:11:11;1.20;;;0.43;;
80677;SDS011;70042;52.494;5.502;2024-02-26T14:13:36;2.03;;;0.50;;
80677;SDS011;70042;52.494;5.502;2024-02-26T14:16:01;1.30;;;0.70;;
80677;SDS011;70042;52.494;5.502;2024-02-26T14:18:27;1.17;;;0.60;;
80677;SDS011;70042;52.494;5.502;2024-02-26T14:20:52;1.02;;;0.52;;
80677;SDS011;70042;52.494;5.502;2024-02-26T14:23:18;1.33;;;0.70;;
80677;SDS011;70042;52.494;5.502;2024-02-26T14:25:43;1.83;;;0.50;;
80677;SDS011;70042;52.494;5.502;2024-02-26T14:28:08;2.08;;;0.73;;
80677;SDS011;70042;52.494;5.502;2024-02-26T14:30:34;1.58;;;0.40;;
80677;SDS011;70042;52.494;5.502;2024-02-26T14:32:59;1.75;;;0.63;;
80677;SDS011;70042;52.494;5.502;2024-02-26T14:35:25;1.50;;;0.60;;
80677;SDS011;70042;52.494;5.502;2024-02-26T14:37:51;1.80;;;0.57;;
80677;SDS011;70042;52.494;5.502;2024-02-26T14:40:17;2.00;;;0.90;;
80677;SDS011;70042;52.494;5.502;2024-02-26T14:42:43;2.30;;;0.77;;
80677;SDS011;70042;52.494;5.502;2024-02-26T14:45:09;1.08;;;0.70;;
80677;SDS011;70042;52.494;5.502;2024-02-26T14:47:36;2.10;;;0.50;;
80677;SDS011;70042;52.494;5.502;2024-02-26T14:50:02;2.08;;;0.65;;
80677;SDS011;70042;52.494;5.502;2024-02-26T14:52:27;1.10;;;0.40;;
80677;SDS011;70042;52.494;5.502;2024-02-26T14:54:52;1.65;;;0.60;;
80677;SDS011;70042;52.494;5.502;2024-02-26T14:57:18;1.38;;;0.60;;
80677;SDS011;70042;52.494;5.502;2024-02-26T14:59:43;1.83;;;0.60;;
80677;SDS011;70042;52.494;5.502;2024-02-26T15:02:09;2.53;;;0.60;;
80677;SDS011;70042;52.494;5.502;2024-02-26T15:04:38;1.23;;;0.52;;
80677;SDS011;70042;52.494;5.502;2024-02-26T15:07:03;2.42;;;0.50;;
80677;SDS011;70042;52.494;5.502;2024-02-26T15:09:29;3.03;;;0.60;;
80677;SDS011;70042;52.494;5.502;2024-02-26T15:11:55;1.00;;;0.43;;
80677;SDS011;70042;52.494;5.502;2024-02-26T15:14:22;1.48;;;0.60;;
80677;SDS011;70042;52.494;5.502;2024-02-26T15:16:48;1.08;;;0.40;;
80677;SDS011;70042;52.494;5.502;2024-02-26T15:19:13;0.75;;;0.40;;
80677;SDS011;70042;52.494;5.502;2024-02-26T15:21:42;1.80;;;0.50;;
80677;SDS011;70042;52.494;5.502;2024-02-26T15:24:09;3.45;;;0.70;;
80677;SDS011;70042;52.494;5.502;2024-02-26T15:26:36;1.33;;;0.50;;